sensor_id;sensor_type;location;lat;lon;timestamp;P1;durP1;ratioP1;P2;durP2;ratioP2
36923;SDS011;22841;50.252;18.688;2024-03-23T00:54:01;67.00;;;33.78;;
36923;SDS011;22841;50.252;18.688;2024-03-23T00:56:29;66.50;;;33.38;;
36923;SDS011;22841;50.252;18.688;2024-03-23T00:58:55;66.50;;;32.20;;
36923;SDS011;22841;50.252;18.688;2024-03-23T01:01:21;69.80;;;34.17;;
36923;SDS011;22841;50.252;18.688;2024-03-23T01:03:47;62.15;;;33.47;;
36923;SDS011;22841;50.252;18.688;2024-03-23T01:06:13;67.28;;;32.55;;
36923;SDS011;22841;50.252;18.688;2024-03-23T01:08:39;63.95;;;33.60;;
36923;SDS011;22841;50.252;18.688;2024-03-23T01:11:05;68.25;;;33.88;;
36923;SDS011;22841;50.252;18.688;2024-03-23T01:13:31;67.03;;;32.75;;
36923;SDS011;22841;50.252;18.688;2024-03-23T01:15:57;59.70;;;31.35;;
36923;SDS011;22841;50.252;18.688;2024-03-23T01:18:23;63.40;;;32.33;;
36923;SDS011;22841;50.252;18.688;2024-03-23T01:20:51;70.63;;;33.95;;
36923;SDS011;22841;50.252;18.688;2024-03-23T01:23:18;55.50;;;31.00;;
36923;SDS011;22841;50.252;18.688;2024-03-23T01:25:51;62.33;;;32.78;;
36923;SDS011;22841;50.252;18.688;2024-03-23T01:28:18;67.15;;;32.78;;
36923;SDS011;22841;50.252;18.688;2024-03-23T01:30:44;62.72;;;32.03;;
36923;SDS011;22841;50.252;18.688;2024-03-23T01:33:10;63.78;;;34.42;;
36923;SDS011;22841;50.252;18.688;2024-03-23T01:35:36;66.10;;;32.85;;
36923;SDS011;22841;50.252;18.688;2024-03-23T01:38:02;65.82;;;34.42;;
36923;SDS011;22841;50.252;18.688;2024-03-23T01:40:29;63.97;;;32.03;;
36923;SDS011;22841;50.252;18.688;2024-03-23T01:42:58;58.53;;;30.80;;
36923;SDS011;22841;50.252;18.688;2024-03-23T01:45:27;80.90;;;40.50;;
36923;SDS011;22841;50.252;18.688;2024-03-23T01:47:54;84.63;;;42.58;;
36923;SDS011;22841;50.252;18.688;2024-03-23T01:50:20;73.45;;;36.97;;
36923;SDS011;22841;50.252;18.688;2024-03-23T01:52:46;70.47;;;35.35;;
36923;SDS011;22841;50.252;18.688;2024-03-23T01:55:13;73.75;;;37.13;;
36923;SDS011;22841;50.252;18.688;2024-03-23T01:57:39;80.70;;;38.63;;
36923;SDS011;22841;50.252;18.688;2024-03-23T02:00:06;73.57;;;36.25;;
36923;SDS011;22841;50.252;18.688;2024-03-23T02:02:32;77.15;;;39.17;;
36923;SDS011;22841;50.252;18.688;2024-03-23T02:04:58;71.20;;;37.97;;
36923;SDS011;22841;50.252;18.688;2024-03-23T02:07:24;75.95;;;38.30;;
36923;SDS011;22841;50.252;18.688;2024-03-23T02:09:51;83.90;;;43.13;;
36923;SDS011;22841;50.252;18.688;2024-03-23T02:12:18;75.43;;;39.97;;
36923;SDS011;22841;50.252;18.688;2024-03-23T02:14:44;81.85;;;38.65;;
36923;SDS011;22841;50.252;18.688;2024-03-23T02:17:10;77.82;;;37.35;;
36923;SDS011;22841;50.252;18.688;2024-03-23T02:19:36;71.68;;;38.35;;
36923;SDS011;22841;50.252;18.688;2024-03-23T02:22:02;76.53;;;37.22;;
36923;SDS011;22841;50.252;18.688;2024-03-23T02:24:29;72.82;;;37.30;;
36923;SDS011;22841;50.252;18.688;2024-03-23T02:26:55;68.15;;;34.47;;
36923;SDS011;22841;50.252;18.688;2024-03-23T02:29:21;66.60;;;34.63;;
36923;SDS011;22841;50.252;18.688;2024-03-23T02:31:47;61.63;;;32.10;;
36923;SDS011;22841;50.252;18.688;2024-03-23T02:34:13;62.78;;;33.10;;
36923;SDS011;22841;50.252;18.688;2024-03-23T02:36:39;57.28;;;31.60;;
36923;SDS011;22841;50.252;18.688;2024-03-23T02:39:05;69.40;;;35.42;;
36923;SDS011;22841;50.252;18.688;2024-03-23T02:41:32;66.30;;;33.33;;
36923;SDS011;22841;50.252;18.688;2024-03-23T02:43:58;62.88;;;34.20;;
36923;SDS011;22841;50.252;18.688;2024-03-23T02:46:24;65.13;;;33.28;;
36923;SDS011;22841;50.252;18.688;2024-03-23T02:48:50;59.80;;;33.00;;
36923;SDS011;22841;50.252;18.688;2024-03-23T02:51:16;64.25;;;33.35;;
36923;SDS011;22841;50.252;18.688;2024-03-23T02:53:42;64.97;;;35.33;;
36923;SDS011;22841;50.252;18.688;2024-03-23T02:56:08;68.07;;;33.83;;
36923;SDS011;22841;50.252;18.688;2024-03-23T02:58:34;100.78;;;50.45;;
36923;SDS011;22841;50.252;18.688;2024-03-23T03:01:00;147.15;;;65.72;;
36923;SDS011;22841;50.252;18.688;2024-03-23T03:03:26;162.23;;;71.72;;
36923;SDS011;22841;50.252;18.688;2024-03-23T03:05:56;169.88;;;76.40;;
36923;SDS011;22841;50.252;18.688;2024-03-23T03:08:22;162.75;;;75.40;;
36923;SDS011;22841;50.252;18.688;2024-03-23T03:10:48;152.32;;;66.30;;
36923;SDS011;22841;50.252;18.688;2024-03-23T03:13:14;135.13;;;60.10;;
36923;SDS011;22841;50.252;18.688;2024-03-23T03:15:41;130.93;;;61.17;;
36923;SDS011;22841;50.252;18.688;2024-03-23T03:18:08;124.93;;;59.33;;
36923;SDS011;22841;50.252;18.688;2024-03-23T03:20:38;127.80;;;59.40;;
36923;SDS011;22841;50.252;18.688;2024-03-23T03:23:05;123.45;;;58.15;;
36923;SDS011;22841;50.252;18.688;2024-03-23T03:25:32;124.57;;;58.38;;
36923;SDS011;22841;50.252;18.688;2024-03-23T03:27:58;124.60;;;58.22;;
36923;SDS011;22841;50.252;18.688;2024-03-23T03:30:24;126.65;;;59.42;;
36923;SDS011;22841;50.252;18.688;2024-03-23T03:32:52;122.43;;;58.03;;
36923;SDS011;22841;50.252;18.688;2024-03-23T03:35:19;125.00;;;59.55;;
36923;SDS011;22841;50.252;18.688;2024-03-23T03:37:45;126.80;;;58.90;;
36923;SDS011;22841;50.252;18.688;2024-03-23T03:40:11;121.80;;;57.17;;
36923;SDS011;22841;50.252;18.688;2024-03-23T03:42:38;111.90;;;54.95;;
36923;SDS011;22841;50.252;18.688;2024-03-23T03:45:04;118.20;;;56.05;;
36923;SDS011;22841;50.252;18.688;2024-03-23T03:47:30;114.70;;;55.85;;
36923;SDS011;22841;50.252;18.688;2024-03-23T03:49:56;114.18;;;55.50;;
36923;SDS011;22841;50.252;18.688;2024-03-23T03:52:22;109.65;;;54.22;;
36923;SDS011;22841;50.252;18.688;2024-03-23T03:54:49;111.63;;;54.42;;
36923;SDS011;22841;50.252;18.688;2024-03-23T03:57:15;103.65;;;51.45;;
36923;SDS011;22841;50.252;18.688;2024-03-23T03:59:41;102.78;;;49.83;;
36923;SDS011;22841;50.252;18.688;2024-03-23T04:02:07;88.18;;;41.85;;
36923;SDS011;22841;50.252;18.688;2024-03-23T04:04:33;70.53;;;36.28;;
36923;SDS011;22841;50.252;18.688;2024-03-23T04:07:02;71.78;;;34.47;;
36923;SDS011;22841;50.252;18.688;2024-03-23T04:09:28;60.13;;;32.08;;
36923;SDS011;22841;50.252;18.688;2024-03-23T04:11:55;60.65;;;31.73;;
36923;SDS011;22841;50.252;18.688;2024-03-23T04:14:21;62.40;;;32.03;;
36923;SDS011;22841;50.252;18.688;2024-03-23T04:16:47;60.65;;;31.55;;
36923;SDS011;22841;50.252;18.688;2024-03-23T04:19:13;60.78;;;30.00;;
36923;SDS011;22841;50.252;18.688;2024-03-23T04:21:40;70.20;;;33.42;;
36923;SDS011;22841;50.252;18.688;2024-03-23T04:24:06;60.10;;;31.77;;
36923;SDS011;22841;50.252;18.688;2024-03-23T04:26:42;64.53;;;33.30;;
36923;SDS011;22841;50.252;18.688;2024-03-23T04:29:08;70.15;;;36.60;;
36923;SDS011;22841;50.252;18.688;2024-03-23T04:31:34;68.00;;;35.83;;
36923;SDS011;22841;50.252;18.688;2024-03-23T04:34:01;73.75;;;38.42;;
36923;SDS011;22841;50.252;18.688;2024-03-23T04:36:27;71.15;;;36.38;;
36923;SDS011;22841;50.252;18.688;2024-03-23T04:38:53;76.55;;;36.95;;
36923;SDS011;22841;50.252;18.688;2024-03-23T04:41:19;72.03;;;35.85;;
36923;SDS011;22841;50.252;18.688;2024-03-23T04:43:45;77.82;;;37.97;;
36923;SDS011;22841;50.252;18.688;2024-03-23T04:46:12;73.97;;;37.33;;
36923;SDS011;22841;50.252;18.688;2024-03-23T04:48:38;75.20;;;38.15;;
36923;SDS011;22841;50.252;18.688;2024-03-23T04:51:04;80.15;;;40.13;;
36923;SDS011;22841;50.252;18.688;2024-03-23T04:53:30;76.50;;;38.40;;
36923;SDS011;22841;50.252;18.688;2024-03-23T04:55:56;71.75;;;36.28;;
36923;SDS011;22841;50.252;18.688;2024-03-23T04:58:24;78.35;;;39.10;;
36923;SDS011;22841;50.252;18.688;2024-03-23T05:00:54;73.95;;;36.90;;
36923;SDS011;22841;50.252;18.688;2024-03-23T05:03:21;71.63;;;36.50;;
36923;SDS011;22841;50.252;18.688;2024-03-23T05:05:48;71.75;;;36.47;;
36923;SDS011;22841;50.252;18.688;2024-03-23T05:08:14;72.40;;;38.58;;
36923;SDS011;22841;50.252;18.688;2024-03-23T05:10:41;74.28;;;37.05;;
36923;SDS011;22841;50.252;18.688;2024-03-23T05:13:08;77.38;;;38.65;;
36923;SDS011;22841;50.252;18.688;2024-03-23T05:15:34;76.13;;;39.30;;
36923;SDS011;22841;50.252;18.688;2024-03-23T05:18:01;65.97;;;35.03;;
36923;SDS011;22841;50.252;18.688;2024-03-23T05:20:27;58.50;;;31.15;;
36923;SDS011;22841;50.252;18.688;2024-03-23T05:22:54;52.72;;;27.58;;
36923;SDS011;22841;50.252;18.688;2024-03-23T05:25:20;50.00;;;29.60;;
36923;SDS011;22841;50.252;18.688;2024-03-23T05:27:47;52.90;;;28.88;;
36923;SDS011;22841;50.252;18.688;2024-03-23T05:30:13;54.13;;;28.33;;
36923;SDS011;22841;50.252;18.688;2024-03-23T05:32:39;49.22;;;25.95;;
36923;SDS011;22841;50.252;18.688;2024-03-23T05:35:07;55.00;;;26.55;;
36923;SDS011;22841;50.252;18.688;2024-03-23T05:37:34;49.00;;;24.92;;
36923;SDS011;22841;50.252;18.688;2024-03-23T05:40:00;47.88;;;25.58;;
36923;SDS011;22841;50.252;18.688;2024-03-23T05:42:29;46.90;;;24.98;;
36923;SDS011;22841;50.252;18.688;2024-03-23T05:44:55;47.60;;;25.17;;
36923;SDS011;22841;50.252;18.688;2024-03-23T05:47:21;50.33;;;26.40;;
36923;SDS011;22841;50.252;18.688;2024-03-23T05:49:47;49.30;;;27.45;;
36923;SDS011;22841;50.252;18.688;2024-03-23T05:52:13;49.47;;;26.58;;
36923;SDS011;22841;50.252;18.688;2024-03-23T05:54:39;49.28;;;26.35;;
36923;SDS011;22841;50.252;18.688;2024-03-23T05:57:09;50.80;;;26.90;;
36923;SDS011;22841;50.252;18.688;2024-03-23T05:59:35;47.45;;;24.17;;
36923;SDS011;22841;50.252;18.688;2024-03-23T06:02:01;40.92;;;22.02;;
36923;SDS011;22841;50.252;18.688;2024-03-23T06:04:27;41.53;;;21.63;;
36923;SDS011;22841;50.252;18.688;2024-03-23T06:06:53;41.95;;;22.10;;
36923;SDS011;22841;50.252;18.688;2024-03-23T06:09:19;34.05;;;20.38;;
36923;SDS011;22841;50.252;18.688;2024-03-23T06:11:46;36.95;;;20.23;;
36923;SDS011;22841;50.252;18.688;2024-03-23T06:14:12;38.72;;;21.52;;
36923;SDS011;22841;50.252;18.688;2024-03-23T06:16:38;37.47;;;20.63;;
36923;SDS011;22841;50.252;18.688;2024-03-23T06:19:04;35.92;;;21.60;;
36923;SDS011;22841;50.252;18.688;2024-03-23T06:21:32;39.92;;;22.38;;
36923;SDS011;22841;50.252;18.688;2024-03-23T06:23:59;40.30;;;22.67;;
36923;SDS011;22841;50.252;18.688;2024-03-23T06:26:25;40.88;;;22.10;;
36923;SDS011;22841;50.252;18.688;2024-03-23T06:28:51;35.10;;;19.52;;
36923;SDS011;22841;50.252;18.688;2024-03-23T06:31:17;33.08;;;19.83;;
36923;SDS011;22841;50.252;18.688;2024-03-23T06:33:43;33.25;;;18.70;;
36923;SDS011;22841;50.252;18.688;2024-03-23T06:36:10;29.65;;;17.73;;
36923;SDS011;22841;50.252;18.688;2024-03-23T06:38:37;36.60;;;19.40;;
36923;SDS011;22841;50.252;18.688;2024-03-23T06:41:04;36.13;;;19.38;;
36923;SDS011;22841;50.252;18.688;2024-03-23T06:43:30;35.28;;;18.90;;
36923;SDS011;22841;50.252;18.688;2024-03-23T06:45:57;42.95;;;21.67;;
36923;SDS011;22841;50.252;18.688;2024-03-23T06:48:23;42.25;;;20.60;;
36923;SDS011;22841;50.252;18.688;2024-03-23T06:50:49;36.97;;;20.75;;
36923;SDS011;22841;50.252;18.688;2024-03-23T06:53:20;37.05;;;20.10;;
36923;SDS011;22841;50.252;18.688;2024-03-23T06:55:50;34.38;;;18.25;;
36923;SDS011;22841;50.252;18.688;2024-03-23T06:58:18;39.95;;;20.00;;
36923;SDS011;22841;50.252;18.688;2024-03-23T07:00:48;36.67;;;18.98;;
36923;SDS011;22841;50.252;18.688;2024-03-23T07:03:15;36.60;;;19.02;;
36923;SDS011;22841;50.252;18.688;2024-03-23T07:05:42;33.53;;;17.25;;
36923;SDS011;22841;50.252;18.688;2024-03-23T07:08:08;35.38;;;19.38;;
36923;SDS011;22841;50.252;18.688;2024-03-23T07:10:34;34.78;;;17.90;;
36923;SDS011;22841;50.252;18.688;2024-03-23T07:13:01;30.85;;;16.83;;
36923;SDS011;22841;50.252;18.688;2024-03-23T07:15:27;31.52;;;16.35;;
36923;SDS011;22841;50.252;18.688;2024-03-23T07:17:53;23.38;;;15.50;;
36923;SDS011;22841;50.252;18.688;2024-03-23T07:20:23;28.88;;;15.63;;
36923;SDS011;22841;50.252;18.688;2024-03-23T07:22:49;24.35;;;14.18;;
36923;SDS011;22841;50.252;18.688;2024-03-23T07:25:16;25.23;;;14.32;;
36923;SDS011;22841;50.252;18.688;2024-03-23T07:27:42;22.88;;;13.07;;
36923;SDS011;22841;50.252;18.688;2024-03-23T07:30:08;19.30;;;13.10;;
36923;SDS011;22841;50.252;18.688;2024-03-23T07:32:35;23.88;;;11.63;;
36923;SDS011;22841;50.252;18.688;2024-03-23T07:35:01;22.35;;;12.52;;
36923;SDS011;22841;50.252;18.688;2024-03-23T07:37:28;21.13;;;12.43;;
36923;SDS011;22841;50.252;18.688;2024-03-23T07:39:54;20.88;;;11.57;;
36923;SDS011;22841;50.252;18.688;2024-03-23T07:42:20;18.83;;;11.65;;
36923;SDS011;22841;50.252;18.688;2024-03-23T07:44:46;22.50;;;12.35;;
36923;SDS011;22841;50.252;18.688;2024-03-23T07:47:12;21.35;;;12.75;;
36923;SDS011;22841;50.252;18.688;2024-03-23T07:49:38;22.48;;;11.50;;
36923;SDS011;22841;50.252;18.688;2024-03-23T07:52:05;18.17;;;10.65;;
36923;SDS011;22841;50.252;18.688;2024-03-23T07:54:31;17.90;;;11.57;;
36923;SDS011;22841;50.252;18.688;2024-03-23T07:56:57;18.60;;;10.80;;
36923;SDS011;22841;50.252;18.688;2024-03-23T07:59:23;19.13;;;9.75;;
36923;SDS011;22841;50.252;18.688;2024-03-23T08:01:50;15.70;;;9.93;;
36923;SDS011;22841;50.252;18.688;2024-03-23T08:04:16;20.38;;;9.73;;
36923;SDS011;22841;50.252;18.688;2024-03-23T08:06:43;16.20;;;10.00;;
36923;SDS011;22841;50.252;18.688;2024-03-23T08:09:09;16.40;;;9.63;;
36923;SDS011;22841;50.252;18.688;2024-03-23T08:11:35;15.55;;;9.80;;
36923;SDS011;22841;50.252;18.688;2024-03-23T08:14:01;14.75;;;9.63;;
36923;SDS011;22841;50.252;18.688;2024-03-23T08:16:27;17.23;;;9.20;;
36923;SDS011;22841;50.252;18.688;2024-03-23T08:18:54;16.85;;;10.10;;
36923;SDS011;22841;50.252;18.688;2024-03-23T08:21:23;18.27;;;9.05;;
36923;SDS011;22841;50.252;18.688;2024-03-23T08:23:51;13.75;;;7.88;;
36923;SDS011;22841;50.252;18.688;2024-03-23T08:26:17;15.15;;;8.95;;
36923;SDS011;22841;50.252;18.688;2024-03-23T08:28:43;17.48;;;9.02;;
36923;SDS011;22841;50.252;18.688;2024-03-23T08:31:10;17.23;;;9.02;;
36923;SDS011;22841;50.252;18.688;2024-03-23T08:33:37;16.35;;;8.73;;
36923;SDS011;22841;50.252;18.688;2024-03-23T08:36:05;21.73;;;10.05;;
36923;SDS011;22841;50.252;18.688;2024-03-23T08:38:33;21.10;;;10.02;;
36923;SDS011;22841;50.252;18.688;2024-03-23T08:41:03;19.73;;;9.27;;
36923;SDS011;22841;50.252;18.688;2024-03-23T08:43:30;16.75;;;9.25;;
36923;SDS011;22841;50.252;18.688;2024-03-23T08:46:07;17.02;;;9.43;;
36923;SDS011;22841;50.252;18.688;2024-03-23T08:48:34;18.05;;;9.00;;
36923;SDS011;22841;50.252;18.688;2024-03-23T08:51:07;13.90;;;8.35;;
36923;SDS011;22841;50.252;18.688;2024-03-23T08:53:37;14.70;;;7.88;;
36923;SDS011;22841;50.252;18.688;2024-03-23T08:56:04;15.82;;;8.68;;
36923;SDS011;22841;50.252;18.688;2024-03-23T08:58:32;13.60;;;7.57;;
36923;SDS011;22841;50.252;18.688;2024-03-23T09:01:08;13.98;;;7.85;;
36923;SDS011;22841;50.252;18.688;2024-03-23T09:03:35;12.50;;;7.65;;
36923;SDS011;22841;50.252;18.688;2024-03-23T09:06:06;12.93;;;7.30;;
36923;SDS011;22841;50.252;18.688;2024-03-23T09:08:39;13.30;;;7.95;;
36923;SDS011;22841;50.252;18.688;2024-03-23T09:11:06;19.08;;;8.48;;
36923;SDS011;22841;50.252;18.688;2024-03-23T09:13:34;16.23;;;8.02;;
36923;SDS011;22841;50.252;18.688;2024-03-23T09:16:01;17.67;;;8.10;;
36923;SDS011;22841;50.252;18.688;2024-03-23T09:18:30;20.10;;;8.52;;
36923;SDS011;22841;50.252;18.688;2024-03-23T09:20:57;19.25;;;8.63;;
36923;SDS011;22841;50.252;18.688;2024-03-23T09:23:23;11.05;;;7.15;;
36923;SDS011;22841;50.252;18.688;2024-03-23T09:25:50;15.02;;;7.97;;
36923;SDS011;22841;50.252;18.688;2024-03-23T09:28:16;14.65;;;9.27;;
36923;SDS011;22841;50.252;18.688;2024-03-23T09:30:42;12.38;;;7.60;;
36923;SDS011;22841;50.252;18.688;2024-03-23T09:33:11;16.65;;;7.82;;
36923;SDS011;22841;50.252;18.688;2024-03-23T09:35:38;17.73;;;8.60;;
36923;SDS011;22841;50.252;18.688;2024-03-23T09:38:06;18.02;;;8.05;;
36923;SDS011;22841;50.252;18.688;2024-03-23T09:40:41;16.73;;;8.05;;
36923;SDS011;22841;50.252;18.688;2024-03-23T09:43:09;13.05;;;7.60;;
36923;SDS011;22841;50.252;18.688;2024-03-23T09:45:39;15.23;;;9.10;;
36923;SDS011;22841;50.252;18.688;2024-03-23T09:48:08;15.27;;;8.45;;
36923;SDS011;22841;50.252;18.688;2024-03-23T09:50:38;15.93;;;7.60;;
36923;SDS011;22841;50.252;18.688;2024-03-23T09:53:08;14.07;;;7.68;;
36923;SDS011;22841;50.252;18.688;2024-03-23T09:55:37;14.57;;;7.93;;
36923;SDS011;22841;50.252;18.688;2024-03-23T09:58:04;14.85;;;7.43;;
36923;SDS011;22841;50.252;18.688;2024-03-23T10:00:31;16.27;;;8.00;;
36923;SDS011;22841;50.252;18.688;2024-03-23T10:03:01;16.40;;;8.57;;
36923;SDS011;22841;50.252;18.688;2024-03-23T10:05:28;11.63;;;7.30;;
36923;SDS011;22841;50.252;18.688;2024-03-23T10:07:54;11.95;;;7.10;;
36923;SDS011;22841;50.252;18.688;2024-03-23T10:10:20;13.95;;;7.90;;
36923;SDS011;22841;50.252;18.688;2024-03-23T10:12:48;13.27;;;7.97;;
36923;SDS011;22841;50.252;18.688;2024-03-23T10:15:18;20.15;;;7.38;;
36923;SDS011;22841;50.252;18.688;2024-03-23T10:17:46;16.90;;;7.38;;
36923;SDS011;22841;50.252;18.688;2024-03-23T10:20:12;13.73;;;7.10;;
36923;SDS011;22841;50.252;18.688;2024-03-23T10:22:44;15.02;;;7.22;;
36923;SDS011;22841;50.252;18.688;2024-03-23T10:25:11;13.05;;;6.95;;
36923;SDS011;22841;50.252;18.688;2024-03-23T10:27:39;10.85;;;6.88;;
36923;SDS011;22841;50.252;18.688;2024-03-23T10:30:08;10.98;;;6.78;;
36923;SDS011;22841;50.252;18.688;2024-03-23T10:32:36;15.23;;;7.65;;
36923;SDS011;22841;50.252;18.688;2024-03-23T10:35:19;14.38;;;6.55;;
36923;SDS011;22841;50.252;18.688;2024-03-23T10:37:49;16.83;;;7.10;;
36923;SDS011;22841;50.252;18.688;2024-03-23T10:40:17;12.30;;;7.45;;
36923;SDS011;22841;50.252;18.688;2024-03-23T10:42:43;13.10;;;6.97;;
36923;SDS011;22841;50.252;18.688;2024-03-23T10:47:46;13.00;;;6.45;;
36923;SDS011;22841;50.252;18.688;2024-03-23T10:50:13;12.23;;;5.22;;
36923;SDS011;22841;50.252;18.688;2024-03-23T10:52:39;8.10;;;6.18;;
36923;SDS011;22841;50.252;18.688;2024-03-23T10:55:11;12.93;;;6.32;;
36923;SDS011;22841;50.252;18.688;2024-03-23T10:57:48;11.70;;;5.82;;
36923;SDS011;22841;50.252;18.688;2024-03-23T11:00:17;11.88;;;5.70;;
36923;SDS011;22841;50.252;18.688;2024-03-23T11:02:43;9.93;;;5.38;;
36923;SDS011;22841;50.252;18.688;2024-03-23T11:07:55;10.63;;;5.35;;
36923;SDS011;22841;50.252;18.688;2024-03-23T11:10:30;9.77;;;5.00;;
36923;SDS011;22841;50.252;18.688;2024-03-23T11:12:58;8.55;;;4.30;;
36923;SDS011;22841;50.252;18.688;2024-03-23T11:15:48;11.43;;;4.80;;
36923;SDS011;22841;50.252;18.688;2024-03-23T11:18:19;8.90;;;5.05;;
36923;SDS011;22841;50.252;18.688;2024-03-23T11:20:46;15.32;;;5.43;;
36923;SDS011;22841;50.252;18.688;2024-03-23T11:23:28;12.88;;;4.45;;
36923;SDS011;22841;50.252;18.688;2024-03-23T11:28:20;6.13;;;3.78;;
36923;SDS011;22841;50.252;18.688;2024-03-23T11:30:47;7.20;;;3.90;;
36923;SDS011;22841;50.252;18.688;2024-03-23T11:33:14;8.02;;;3.30;;
36923;SDS011;22841;50.252;18.688;2024-03-23T11:35:41;5.90;;;3.25;;
36923;SDS011;22841;50.252;18.688;2024-03-23T11:38:11;9.52;;;2.65;;
36923;SDS011;22841;50.252;18.688;2024-03-23T11:40:39;5.37;;;2.70;;
36923;SDS011;22841;50.252;18.688;2024-03-23T11:43:06;6.47;;;3.10;;
36923;SDS011;22841;50.252;18.688;2024-03-23T11:45:43;6.78;;;3.08;;
36923;SDS011;22841;50.252;18.688;2024-03-23T11:48:18;8.65;;;3.42;;
36923;SDS011;22841;50.252;18.688;2024-03-23T11:51:11;9.85;;;3.10;;
36923;SDS011;22841;50.252;18.688;2024-03-23T11:54:08;7.90;;;3.10;;
36923;SDS011;22841;50.252;18.688;2024-03-23T11:57:00;5.88;;;2.47;;
36923;SDS011;22841;50.252;18.688;2024-03-23T11:59:37;18.45;;;2.90;;
36923;SDS011;22841;50.252;18.688;2024-03-23T12:02:07;6.40;;;2.87;;
36923;SDS011;22841;50.252;18.688;2024-03-23T12:04:35;8.98;;;2.55;;
36923;SDS011;22841;50.252;18.688;2024-03-23T12:07:09;4.75;;;3.10;;
36923;SDS011;22841;50.252;18.688;2024-03-23T12:10:04;7.15;;;2.53;;
36923;SDS011;22841;50.252;18.688;2024-03-23T12:12:34;4.10;;;2.72;;
36923;SDS011;22841;50.252;18.688;2024-03-23T12:15:04;9.27;;;2.45;;
36923;SDS011;22841;50.252;18.688;2024-03-23T12:17:32;2.70;;;2.35;;
36923;SDS011;22841;50.252;18.688;2024-03-23T12:19:58;7.10;;;2.92;;
36923;SDS011;22841;50.252;18.688;2024-03-23T12:22:24;9.65;;;3.05;;
36923;SDS011;22841;50.252;18.688;2024-03-23T12:24:50;14.10;;;2.80;;
36923;SDS011;22841;50.252;18.688;2024-03-23T12:27:17;5.03;;;2.90;;
36923;SDS011;22841;50.252;18.688;2024-03-23T12:29:43;6.13;;;2.75;;
36923;SDS011;22841;50.252;18.688;2024-03-23T12:32:11;5.53;;;2.83;;
36923;SDS011;22841;50.252;18.688;2024-03-23T12:34:38;6.40;;;2.45;;
36923;SDS011;22841;50.252;18.688;2024-03-23T12:37:04;4.38;;;3.25;;
36923;SDS011;22841;50.252;18.688;2024-03-23T12:39:31;5.13;;;3.17;;
36923;SDS011;22841;50.252;18.688;2024-03-23T12:41:58;8.98;;;3.15;;
36923;SDS011;22841;50.252;18.688;2024-03-23T12:44:24;9.18;;;2.80;;
36923;SDS011;22841;50.252;18.688;2024-03-23T12:46:50;5.13;;;2.95;;
36923;SDS011;22841;50.252;18.688;2024-03-23T12:49:16;15.30;;;3.15;;
36923;SDS011;22841;50.252;18.688;2024-03-23T12:51:46;4.75;;;2.38;;
36923;SDS011;22841;50.252;18.688;2024-03-23T12:54:21;15.52;;;2.78;;
36923;SDS011;22841;50.252;18.688;2024-03-23T12:56:47;10.70;;;3.00;;
36923;SDS011;22841;50.252;18.688;2024-03-23T12:59:14;6.00;;;2.25;;
36923;SDS011;22841;50.252;18.688;2024-03-23T13:01:40;6.05;;;2.28;;
36923;SDS011;22841;50.252;18.688;2024-03-23T13:04:06;3.67;;;2.22;;
36923;SDS011;22841;50.252;18.688;2024-03-23T13:06:32;5.03;;;1.98;;
36923;SDS011;22841;50.252;18.688;2024-03-23T13:09:02;25.02;;;3.03;;
36923;SDS011;22841;50.252;18.688;2024-03-23T13:11:29;7.10;;;2.28;;
36923;SDS011;22841;50.252;18.688;2024-03-23T13:13:55;8.27;;;2.47;;
36923;SDS011;22841;50.252;18.688;2024-03-23T13:16:22;18.35;;;3.70;;
36923;SDS011;22841;50.252;18.688;2024-03-23T13:18:48;5.13;;;2.10;;
36923;SDS011;22841;50.252;18.688;2024-03-23T13:21:15;12.55;;;2.70;;
36923;SDS011;22841;50.252;18.688;2024-03-23T13:23:42;3.22;;;2.00;;
36923;SDS011;22841;50.252;18.688;2024-03-23T13:26:11;8.48;;;3.45;;
36923;SDS011;22841;50.252;18.688;2024-03-23T13:28:37;23.00;;;3.55;;
36923;SDS011;22841;50.252;18.688;2024-03-23T13:31:03;9.90;;;1.52;;
36923;SDS011;22841;50.252;18.688;2024-03-23T13:33:29;4.75;;;1.80;;
36923;SDS011;22841;50.252;18.688;2024-03-23T13:35:57;11.40;;;2.72;;
36923;SDS011;22841;50.252;18.688;2024-03-23T13:38:24;8.75;;;2.05;;
36923;SDS011;22841;50.252;18.688;2024-03-23T13:40:58;6.68;;;2.13;;
36923;SDS011;22841;50.252;18.688;2024-03-23T13:43:25;6.78;;;2.03;;
36923;SDS011;22841;50.252;18.688;2024-03-23T13:45:57;12.18;;;5.22;;
36923;SDS011;22841;50.252;18.688;2024-03-23T13:48:24;14.10;;;2.90;;
36923;SDS011;22841;50.252;18.688;2024-03-23T13:54:13;5.47;;;2.72;;
36923;SDS011;22841;50.252;18.688;2024-03-23T13:57:05;8.20;;;3.30;;
36923;SDS011;22841;50.252;18.688;2024-03-23T13:59:56;10.50;;;4.43;;
36923;SDS011;22841;50.252;18.688;2024-03-23T14:02:47;6.93;;;2.25;;
36923;SDS011;22841;50.252;18.688;2024-03-23T14:05:38;10.52;;;2.88;;
36923;SDS011;22841;50.252;18.688;2024-03-23T14:08:05;7.50;;;3.33;;
36923;SDS011;22841;50.252;18.688;2024-03-23T14:10:35;5.68;;;3.30;;
36923;SDS011;22841;50.252;18.688;2024-03-23T14:13:02;8.18;;;3.58;;
36923;SDS011;22841;50.252;18.688;2024-03-23T14:15:29;13.35;;;4.15;;
36923;SDS011;22841;50.252;18.688;2024-03-23T14:17:58;6.63;;;4.50;;
36923;SDS011;22841;50.252;18.688;2024-03-23T14:20:24;5.88;;;4.10;;
36923;SDS011;22841;50.252;18.688;2024-03-23T14:22:51;14.60;;;6.75;;
36923;SDS011;22841;50.252;18.688;2024-03-23T14:25:18;23.23;;;11.23;;
36923;SDS011;22841;50.252;18.688;2024-03-23T14:27:44;9.57;;;5.65;;
36923;SDS011;22841;50.252;18.688;2024-03-23T14:30:11;6.30;;;3.80;;
36923;SDS011;22841;50.252;18.688;2024-03-23T14:38:47;7.63;;;5.53;;
36923;SDS011;22841;50.252;18.688;2024-03-23T14:41:14;10.35;;;5.40;;
36923;SDS011;22841;50.252;18.688;2024-03-23T14:43:40;5.00;;;4.28;;
36923;SDS011;22841;50.252;18.688;2024-03-23T14:46:10;9.63;;;4.72;;
36923;SDS011;22841;50.252;18.688;2024-03-23T14:48:36;5.97;;;4.00;;
36923;SDS011;22841;50.252;18.688;2024-03-23T14:51:03;10.07;;;4.05;;
36923;SDS011;22841;50.252;18.688;2024-03-23T14:53:34;10.27;;;5.53;;
36923;SDS011;22841;50.252;18.688;2024-03-23T14:56:01;9.82;;;6.18;;
36923;SDS011;22841;50.252;18.688;2024-03-23T14:58:28;8.27;;;4.13;;
36923;SDS011;22841;50.252;18.688;2024-03-23T15:03:27;4.97;;;3.28;;
36923;SDS011;22841;50.252;18.688;2024-03-23T15:05:57;7.60;;;2.72;;
36923;SDS011;22841;50.252;18.688;2024-03-23T15:08:24;5.63;;;3.38;;
36923;SDS011;22841;50.252;18.688;2024-03-23T15:10:50;10.25;;;6.47;;
36923;SDS011;22841;50.252;18.688;2024-03-23T15:13:16;17.42;;;9.07;;
36923;SDS011;22841;50.252;18.688;2024-03-23T15:15:43;21.33;;;7.38;;
36923;SDS011;22841;50.252;18.688;2024-03-23T15:18:11;11.07;;;6.28;;
36923;SDS011;22841;50.252;18.688;2024-03-23T15:20:38;10.98;;;5.80;;
36923;SDS011;22841;50.252;18.688;2024-03-23T15:23:05;7.40;;;4.72;;
36923;SDS011;22841;50.252;18.688;2024-03-23T15:25:31;6.30;;;3.90;;
36923;SDS011;22841;50.252;18.688;2024-03-23T15:27:57;9.40;;;4.30;;
36923;SDS011;22841;50.252;18.688;2024-03-23T15:30:25;7.53;;;4.32;;
36923;SDS011;22841;50.252;18.688;2024-03-23T15:32:51;9.57;;;5.00;;